createdAt,value
2018-01-29T00:01:56.497Z,91.80
2018-01-29T00:04:24.166Z,92.00
2018-01-29T00:06:51.740Z,91.00
2018-01-29T00:09:19.452Z,90.60
2018-01-29T00:11:47.048Z,90.10
2018-01-29T00:14:14.670Z,90.30
2018-01-29T00:16:43.292Z,91.00
2018-01-29T00:19:10.901Z,90.80
2018-01-29T00:21:38.526Z,91.30
2018-01-29T00:24:06.377Z,91.40
2018-01-29T00:26:33.849Z,91.60
2018-01-29T00:29:01.477Z,92.10
2018-01-29T00:31:29.156Z,93.50
2018-01-29T00:33:56.772Z,94.00
2018-01-29T00:36:24.437Z,93.70
2018-01-29T00:38:52.087Z,93.80
2018-01-29T00:41:19.708Z,94.30
2018-01-29T00:43:47.336Z,94.10
2018-01-29T00:46:15.016Z,93.50
2018-01-29T00:48:42.635Z,93.60
2018-01-29T00:51:10.266Z,92.80
2018-01-29T00:53:37.951Z,92.30
2018-01-29T00:56:05.603Z,92.10
2018-01-29T00:58:34.067Z,93.20
2018-01-29T01:01:01.756Z,93.30
2018-01-29T01:03:29.378Z,94.70
2018-01-29T01:05:57.014Z,95.00
2018-01-29T01:08:24.698Z,94.90
2018-01-29T01:13:19.956Z,95.40
2018-01-29T01:15:47.612Z,94.50
2018-01-29T01:18:15.262Z,95.40
2018-01-29T01:20:42.876Z,95.80
2018-01-29T01:23:10.566Z,95.00
2018-01-29T01:28:17.332Z,95.80
2018-01-29T01:30:44.949Z,96.30
2018-01-29T01:33:12.587Z,96.30
2018-01-29T01:35:40.283Z,95.40
2018-01-29T01:38:07.912Z,94.10
2018-01-29T01:40:35.529Z,93.30
2018-01-29T01:43:03.214Z,93.30
2018-01-29T01:47:58.477Z,95.50
2018-01-29T01:50:26.164Z,95.10
2018-01-29T01:52:54.061Z,94.10
2018-01-29T01:55:21.720Z,93.30
2018-01-29T01:57:49.414Z,93.20
2018-01-29T02:00:17.038Z,92.00
2018-01-29T02:02:44.658Z,91.90
2018-01-29T02:05:12.360Z,92.00
2018-01-29T02:10:07.635Z,92.40
2018-01-29T02:12:35.779Z,95.10
2018-01-29T02:15:03.424Z,93.70
2018-01-29T02:17:31.683Z,94.40
2018-01-29T02:19:58.847Z,93.40
2018-01-29T02:25:06.107Z,94.30
2018-01-29T02:27:33.738Z,95.50
2018-01-29T02:30:01.374Z,95.10
2018-01-29T02:32:29.061Z,94.60
2018-01-29T02:34:56.726Z,94.50
2018-01-29T02:37:24.340Z,93.70
2018-01-29T02:39:52.408Z,94.40
2018-01-29T02:44:47.658Z,94.40
2018-01-29T02:47:15.596Z,94.20
2018-01-29T02:49:43.219Z,93.70
2018-01-29T02:52:12.187Z,95.00
2018-01-29T02:54:40.324Z,94.80
2018-01-29T02:57:09.116Z,94.20
2018-01-29T02:59:36.745Z,93.70
2018-01-29T03:02:05.403Z,93.50
2018-01-29T03:04:33.961Z,92.90
2018-01-29T03:07:02.107Z,93.70
2018-01-29T03:09:29.800Z,92.80
2018-01-29T03:11:59.241Z,93.50
2018-01-29T03:14:26.871Z,94.80
2018-01-29T03:16:54.576Z,95.90
2018-01-29T03:19:22.202Z,96.60
2018-01-29T03:21:50.700Z,95.60
2018-01-29T03:24:18.396Z,94.70
2018-01-29T03:26:46.022Z,94.30
2018-01-29T03:29:13.647Z,94.50
2018-01-29T03:31:41.335Z,93.00
2018-01-29T03:34:08.961Z,92.20
2018-01-29T03:36:36.575Z,92.70
2018-01-29T03:41:43.371Z,93.30
2018-01-29T03:44:11.546Z,92.90
2018-01-29T03:46:39.168Z,92.10
2018-01-29T03:49:06.794Z,94.30
2018-01-29T03:51:34.511Z,94.30
2018-01-29T03:54:02.134Z,93.80
2018-01-29T03:56:29.807Z,94.60
2018-01-29T03:58:57.486Z,95.20
2018-01-29T04:01:25.141Z,95.30
2018-01-29T04:03:52.770Z,94.90
2018-01-29T04:06:21.285Z,94.90
2018-01-29T04:08:48.915Z,95.20
2018-01-29T04:11:16.555Z,95.50
2018-01-29T04:13:44.255Z,95.20
2018-01-29T04:16:11.920Z,94.50
2018-01-29T04:18:39.554Z,93.50
2018-01-29T04:21:07.230Z,92.80
2018-01-29T04:23:34.857Z,92.90
2018-01-29T04:26:02.489Z,92.80
2018-01-29T04:30:57.786Z,92.60
2018-01-29T04:33:25.417Z,93.10
2018-01-29T04:35:53.113Z,93.00
2018-01-29T04:40:48.385Z,93.50
2018-01-29T04:43:16.070Z,94.10
2018-01-29T04:48:22.597Z,94.20
2018-01-29T04:53:17.844Z,92.90
2018-01-29T04:55:45.530Z,92.20
2018-01-29T04:58:13.181Z,91.70
2018-01-29T05:00:40.802Z,91.20
2018-01-29T05:03:08.492Z,91.60
2018-01-29T05:05:36.928Z,92.80
2018-01-29T05:08:04.541Z,93.40
2018-01-29T05:10:32.231Z,93.40
2018-01-29T05:12:59.859Z,93.40
2018-01-29T05:15:27.486Z,92.70
2018-01-29T05:17:55.172Z,92.60
2018-01-29T05:20:22.804Z,92.60
2018-01-29T05:22:50.430Z,92.70
2018-01-29T05:25:18.115Z,92.40
2018-01-29T05:30:14.181Z,92.20
2018-01-29T05:32:41.864Z,92.50
2018-01-29T05:40:28.969Z,92.30
2018-01-29T05:42:57.417Z,93.20
2018-01-29T05:45:25.038Z,92.60
2018-01-29T05:47:52.676Z,92.60
2018-01-29T05:50:21.798Z,93.10
2018-01-29T05:52:48.593Z,92.40
2018-01-29T05:55:16.236Z,93.00
2018-01-29T05:57:43.934Z,92.50
2018-01-29T06:02:39.166Z,92.10
2018-01-29T06:05:06.856Z,92.40
2018-01-29T06:07:34.545Z,93.20
2018-01-29T06:10:02.119Z,93.30
2018-01-29T06:14:57.445Z,94.10
2018-01-29T06:17:26.034Z,94.20
2018-01-29T06:19:53.739Z,94.20
2018-01-29T06:22:22.208Z,94.30
2018-01-29T06:24:49.844Z,94.00
2018-01-29T06:27:17.540Z,94.40
2018-01-29T06:29:45.178Z,94.10
2018-01-29T06:32:12.807Z,94.70
2018-01-29T06:34:41.500Z,95.00
2018-01-29T06:37:09.130Z,94.40
2018-01-29T06:39:37.652Z,95.90
2018-01-29T06:42:06.023Z,96.60
2018-01-29T06:47:01.250Z,96.70
2018-01-29T06:49:28.948Z,96.40
2018-01-29T06:51:56.579Z,96.20
2018-01-29T06:59:37.175Z,95.40
2018-01-29T07:02:04.923Z,98.00
2018-01-29T07:04:32.580Z,99.90
2018-01-29T07:07:00.189Z,99.90
2018-01-29T07:09:27.808Z,96.70
2018-01-29T07:11:55.503Z,93.90
2018-01-29T07:14:23.182Z,93.40
2018-01-29T07:16:50.757Z,93.70
2018-01-29T07:19:18.441Z,94.20
2018-01-29T07:21:46.076Z,95.20
2018-01-29T07:24:13.693Z,94.90
2018-01-29T07:26:41.380Z,95.30
2018-01-29T07:29:09.027Z,95.90
2018-01-29T07:31:37.462Z,95.80
2018-01-29T07:34:05.161Z,95.60
2018-01-29T07:36:32.791Z,95.50
2018-01-29T07:39:00.419Z,95.30
2018-01-29T07:41:28.110Z,95.30
2018-01-29T07:43:55.745Z,94.80
2018-01-29T07:46:23.369Z,94.30
2018-01-29T07:48:51.082Z,93.70
2018-01-29T07:51:19.244Z,93.60
2018-01-29T07:53:46.874Z,93.80
2018-01-29T07:56:15.524Z,94.20
2018-01-29T07:58:43.149Z,96.20
2018-01-29T08:01:11.638Z,96.70
2018-01-29T08:06:23.013Z,97.20
2018-01-29T08:13:45.982Z,96.60
2018-01-29T08:16:13.645Z,96.90
2018-01-29T08:21:08.902Z,95.10
2018-01-29T08:23:36.601Z,95.40
2018-01-29T08:26:04.223Z,92.50
2018-01-29T08:28:32.686Z,93.30
2018-01-29T08:31:00.374Z,94.40
2018-01-29T08:33:28.035Z,90.10
2018-01-29T08:35:55.664Z,86.50
2018-01-29T08:38:23.339Z,88.10
2018-01-29T08:40:50.959Z,88.50
2018-01-29T08:43:18.585Z,88.10
2018-01-29T08:45:46.307Z,87.50
2018-01-29T08:48:13.931Z,84.60
2018-01-29T08:50:41.553Z,84.20
2018-01-29T08:53:10.067Z,81.70
2018-01-29T08:55:37.976Z,80.90
2018-01-29T08:58:05.596Z,81.80
2018-01-29T09:00:33.295Z,80.70
2018-01-29T09:03:00.922Z,76.00
2018-01-29T09:05:28.546Z,75.40
2018-01-29T09:07:56.213Z,75.10
2018-01-29T09:10:23.827Z,77.30
2018-01-29T09:12:51.446Z,75.10
2018-01-29T09:15:19.234Z,74.90
2018-01-29T09:17:46.755Z,72.20
2018-01-29T09:22:55.515Z,67.80
2018-01-29T09:25:24.879Z,72.30
2018-01-29T09:27:54.449Z,75.30
2018-01-29T09:32:47.798Z,74.60
2018-01-29T09:35:15.412Z,72.00
2018-01-29T09:37:43.091Z,73.10
2018-01-29T09:42:51.194Z,69.80
2018-01-29T09:45:18.820Z,69.30
2018-01-29T09:47:46.430Z,68.30
2018-01-29T09:50:14.101Z,67.70
2018-01-29T09:52:41.725Z,64.50
2018-01-29T09:55:09.348Z,64.40
2018-01-29T09:57:37.030Z,63.50
2018-01-29T10:00:05.896Z,65.90
2018-01-29T10:02:34.264Z,67.90
2018-01-29T10:05:01.947Z,68.20
2018-01-29T10:07:29.565Z,64.30
2018-01-29T10:09:57.190Z,63.80
2018-01-29T10:12:25.325Z,59.90
2018-01-29T10:14:52.965Z,63.00
2018-01-29T10:17:20.587Z,61.20
2018-01-29T10:19:48.268Z,60.50
2018-01-29T10:22:15.890Z,58.90
2018-01-29T10:24:43.503Z,61.00
2018-01-29T10:27:11.228Z,59.60
2018-01-29T10:29:39.689Z,59.90
2018-01-29T10:32:07.314Z,60.00
2018-01-29T10:34:35.947Z,59.80
2018-01-29T10:37:03.669Z,63.20
2018-01-29T10:41:58.872Z,64.60
2018-01-29T10:44:26.488Z,65.80
2018-01-29T10:46:54.120Z,67.60
2018-01-29T10:49:21.814Z,66.70
2018-01-29T10:51:49.450Z,62.70
2018-01-29T10:54:17.391Z,59.90
2018-01-29T10:56:45.792Z,57.20
2018-01-29T11:04:15.126Z,56.90
2018-01-29T11:09:21.894Z,58.10
2018-01-29T11:11:49.555Z,58.60
2018-01-29T11:14:17.139Z,57.30
2018-01-29T11:16:44.815Z,56.60
2018-01-29T11:19:12.448Z,56.80
2018-01-29T11:21:40.070Z,55.20
2018-01-29T11:24:08.708Z,55.80
2018-01-29T11:26:36.868Z,55.30
2018-01-29T11:29:04.489Z,54.40
2018-01-29T11:31:32.183Z,55.40
2018-01-29T11:34:00.589Z,55.60
2018-01-29T11:36:28.226Z,57.00
2018-01-29T11:38:55.898Z,53.30
2018-01-29T11:41:23.523Z,49.10
2018-01-29T11:43:51.149Z,47.10
2018-01-29T11:46:22.266Z,45.10
2018-01-29T11:48:50.857Z,45.70
2018-01-29T11:51:18.566Z,43.10
2018-01-29T11:53:46.267Z,42.20
2018-01-29T11:56:13.885Z,41.30
2018-01-29T11:58:42.061Z,42.20
2018-01-29T12:01:09.669Z,41.60
2018-01-29T12:03:37.847Z,42.10
2018-01-29T12:08:33.128Z,40.40
2018-01-29T12:11:00.746Z,43.20
2018-01-29T12:16:06.986Z,41.80
2018-01-29T12:18:34.608Z,39.10
2018-01-29T12:21:02.245Z,39.50
2018-01-29T12:23:29.936Z,38.30
2018-01-29T12:25:57.559Z,39.20
2018-01-29T12:28:25.187Z,38.70
2018-01-29T12:30:52.868Z,38.00
2018-01-29T12:33:22.065Z,37.10
2018-01-29T12:35:49.700Z,38.00
2018-01-29T12:38:17.386Z,36.80
2018-01-29T12:40:45.064Z,36.50
2018-01-29T12:43:12.691Z,36.30
2018-01-29T12:45:42.212Z,38.90
2018-01-29T12:48:10.298Z,38.00
2018-01-29T12:50:37.912Z,38.30
2018-01-29T12:53:05.616Z,37.40
2018-01-29T12:55:33.924Z,37.80
2018-01-29T12:58:01.512Z,36.40
2018-01-29T13:00:29.234Z,37.00
2018-01-29T13:02:56.862Z,36.60
2018-01-29T13:05:24.486Z,37.10
2018-01-29T13:07:52.161Z,36.60
2018-01-29T13:10:19.800Z,35.30
2018-01-29T13:12:47.428Z,35.80
2018-01-29T13:15:15.144Z,37.90
2018-01-29T13:17:43.939Z,36.60
2018-01-29T13:20:11.575Z,36.80
2018-01-29T13:22:39.642Z,34.80
2018-01-29T13:25:07.275Z,35.70
2018-01-29T13:27:34.898Z,34.50
2018-01-29T13:30:03.419Z,35.00
2018-01-29T13:32:31.387Z,35.20
2018-01-29T13:37:40.417Z,35.50
2018-01-29T13:40:08.981Z,37.00
2018-01-29T13:42:36.619Z,34.60
2018-01-29T13:45:04.332Z,35.70
2018-01-29T13:47:31.956Z,35.50
2018-01-29T13:50:01.519Z,35.50
2018-01-29T13:52:29.240Z,33.90
2018-01-29T13:54:56.861Z,34.10
2018-01-29T13:57:24.911Z,35.40
2018-01-29T13:59:52.625Z,36.50
2018-01-29T14:02:20.251Z,36.30
2018-01-29T14:04:47.871Z,37.40
2018-01-29T14:07:15.557Z,37.50
2018-01-29T14:09:43.187Z,37.10
2018-01-29T14:12:10.829Z,36.80
2018-01-29T14:14:38.484Z,38.10
2018-01-29T14:17:06.103Z,36.70
2018-01-29T14:19:33.738Z,35.80
2018-01-29T14:24:29.026Z,35.70
2018-01-29T14:26:57.483Z,36.20
2018-01-29T14:29:25.171Z,35.90
2018-01-29T14:31:52.801Z,35.90
2018-01-29T14:34:20.939Z,35.50
2018-01-29T14:36:48.986Z,35.50
2018-01-29T14:39:16.544Z,35.20
2018-01-29T14:41:44.179Z,36.20
2018-01-29T14:44:11.907Z,36.70
2018-01-29T14:46:41.089Z,37.80
2018-01-29T14:49:08.719Z,38.10
2018-01-29T14:51:36.426Z,38.80
2018-01-29T14:54:04.044Z,39.60
2018-01-29T14:59:13.669Z,41.20
2018-01-29T15:01:41.288Z,41.40
2018-01-29T15:04:08.916Z,41.30
2018-01-29T15:06:37.573Z,41.20
2018-01-29T15:09:05.191Z,41.80
2018-01-29T15:11:33.622Z,41.70
2018-01-29T15:14:01.303Z,41.60
2018-01-29T15:16:28.929Z,42.10
2018-01-29T15:18:56.546Z,41.90
2018-01-29T15:21:24.219Z,42.30
2018-01-29T15:23:51.839Z,42.30
2018-01-29T15:26:19.448Z,42.20
2018-01-29T15:28:47.163Z,42.70
2018-01-29T15:31:15.604Z,43.80
2018-01-29T15:33:43.223Z,44.80
2018-01-29T15:36:10.942Z,45.70
2018-01-29T15:38:38.571Z,46.30
2018-01-29T15:41:06.183Z,46.10
2018-01-29T15:43:33.891Z,46.40
2018-01-29T15:46:01.506Z,46.60
2018-01-29T15:50:56.808Z,46.60
2018-01-29T15:53:24.422Z,46.20
2018-01-29T15:55:52.044Z,47.70
2018-01-29T15:58:19.746Z,49.20
2018-01-29T16:00:47.376Z,49.10
2018-01-29T16:05:42.702Z,50.30
2018-01-29T16:08:10.330Z,49.50
2018-01-29T16:13:17.085Z,49.90
2018-01-29T16:15:44.708Z,50.90
2018-01-29T16:18:12.329Z,50.30
2018-01-29T16:20:40.013Z,50.70
2018-01-29T16:23:08.593Z,49.60
2018-01-29T16:25:36.261Z,50.70
2018-01-29T16:28:03.938Z,51.90
2018-01-29T16:30:31.558Z,52.20
2018-01-29T16:32:59.175Z,54.40
2018-01-29T16:35:26.852Z,55.90
2018-01-29T16:37:54.486Z,55.90
2018-01-29T16:40:22.111Z,56.00
2018-01-29T16:42:49.834Z,55.10
2018-01-29T16:45:17.453Z,55.10
2018-01-29T16:50:12.767Z,56.70
2018-01-29T16:52:40.397Z,56.20
2018-01-29T16:55:10.261Z,56.80
2018-01-29T16:57:38.936Z,57.10
2018-01-29T17:00:06.564Z,58.80
2018-01-29T17:02:34.171Z,59.40
2018-01-29T17:05:01.865Z,58.80
2018-01-29T17:07:29.501Z,59.00
2018-01-29T17:09:57.123Z,59.40
2018-01-29T17:12:24.794Z,60.10
2018-01-29T17:14:52.474Z,60.00
2018-01-29T17:17:20.118Z,60.00
2018-01-29T17:19:48.676Z,60.80
2018-01-29T17:22:17.243Z,61.00
2018-01-29T17:24:44.891Z,61.00
2018-01-29T17:27:12.563Z,61.90
2018-01-29T17:29:40.202Z,62.00
2018-01-29T17:32:07.825Z,62.10
2018-01-29T17:37:15.556Z,64.10
2018-01-29T17:39:43.264Z,63.80
2018-01-29T17:42:10.878Z,63.50
2018-01-29T17:44:38.517Z,63.60
2018-01-29T17:47:06.199Z,64.10
2018-01-29T17:49:34.277Z,64.60
2018-01-29T17:52:01.932Z,63.30
2018-01-29T17:54:29.646Z,63.40
2018-01-29T17:56:57.264Z,66.00
2018-01-29T17:59:24.908Z,69.50
2018-01-29T18:01:52.612Z,71.60
2018-01-29T18:04:20.282Z,69.00
2018-01-29T18:06:48.327Z,67.00
2018-01-29T18:11:47.726Z,67.50
2018-01-29T18:14:16.239Z,65.30
2018-01-29T18:16:43.876Z,64.80
2018-01-29T18:19:11.511Z,66.60
2018-01-29T18:21:39.240Z,66.10
2018-01-29T18:24:07.696Z,67.00
2018-01-29T18:26:35.324Z,67.80
2018-01-29T18:29:03.038Z,69.00
2018-01-29T18:31:30.677Z,67.10
2018-01-29T18:33:58.311Z,69.90
2018-01-29T18:36:26.461Z,70.40
2018-01-29T18:38:54.949Z,69.90
2018-01-29T18:41:23.096Z,71.60
2018-01-29T18:43:50.799Z,73.10
2018-01-29T18:46:18.419Z,74.70
2018-01-29T18:48:46.043Z,78.50
2018-01-29T18:51:13.752Z,83.30
2018-01-29T18:53:42.354Z,83.70
2018-01-29T18:58:51.543Z,82.00
2018-01-29T19:01:19.171Z,80.90
2018-01-29T19:03:46.785Z,79.70
2018-01-29T19:06:14.549Z,80.40
2018-01-29T19:08:42.195Z,80.70
2018-01-29T19:11:09.813Z,79.10
2018-01-29T19:13:37.714Z,78.90
2018-01-29T19:16:05.128Z,78.70
2018-01-29T19:18:32.754Z,78.80
2018-01-29T19:21:00.440Z,78.30
2018-01-29T19:23:28.063Z,77.70
2018-01-29T19:25:55.704Z,78.10
2018-01-29T19:28:23.421Z,79.20
2018-01-29T19:30:51.062Z,79.20
2018-01-29T19:33:18.706Z,79.00
2018-01-29T19:35:46.400Z,78.50
2018-01-29T19:38:14.767Z,78.60
2018-01-29T19:40:42.430Z,79.40
2018-01-29T19:43:10.130Z,80.00
2018-01-29T19:45:37.757Z,80.30
2018-01-29T19:48:05.402Z,79.60
2018-01-29T19:50:33.113Z,78.30
2018-01-29T19:53:00.791Z,78.00
2018-01-29T19:55:28.408Z,77.60
2018-01-29T19:57:56.103Z,76.50
2018-01-29T20:00:23.841Z,77.20
2018-01-29T20:02:51.445Z,78.90
2018-01-29T20:07:59.192Z,82.20
2018-01-29T20:10:35.208Z,83.00
2018-01-29T20:13:02.861Z,82.20
2018-01-29T20:15:30.534Z,83.90
2018-01-29T20:20:25.873Z,83.70
2018-01-29T20:22:53.613Z,83.70
2018-01-29T20:25:21.369Z,83.70
2018-01-29T20:27:49.208Z,83.60
2018-01-29T20:30:16.900Z,82.20
2018-01-29T20:32:44.996Z,80.70
2018-01-29T20:35:12.649Z,80.90
2018-01-29T20:37:40.284Z,80.20
2018-01-29T20:40:08.035Z,80.60
2018-01-29T20:42:35.664Z,80.20
2018-01-29T20:45:03.278Z,79.60
2018-01-29T20:49:59.090Z,81.20
2018-01-29T20:52:26.713Z,80.80
2018-01-29T20:54:54.437Z,80.10
2018-01-29T20:57:22.060Z,80.40
2018-01-29T20:59:49.689Z,81.40
2018-01-29T21:02:17.365Z,81.00
2018-01-29T21:04:44.985Z,81.90
2018-01-29T21:07:12.601Z,80.40
2018-01-29T21:09:40.299Z,83.10
2018-01-29T21:14:35.608Z,85.20
2018-01-29T21:17:04.813Z,85.60
2018-01-29T21:19:33.553Z,84.70
2018-01-29T21:24:44.489Z,83.00
2018-01-29T21:29:44.197Z,82.00
2018-01-29T21:32:12.433Z,82.20
2018-01-29T21:34:43.052Z,83.50
2018-01-29T21:37:08.801Z,82.30
2018-01-29T21:39:36.486Z,85.60
2018-01-29T21:42:04.132Z,83.40
2018-01-29T21:44:31.757Z,82.10
2018-01-29T21:46:59.459Z,82.20
2018-01-29T21:49:27.567Z,82.90
2018-01-29T21:51:55.208Z,83.90
2018-01-29T21:56:50.554Z,83.50
2018-01-29T21:59:18.179Z,86.20
2018-01-29T22:04:13.520Z,88.50
2018-01-29T22:06:41.952Z,85.20
2018-01-29T22:09:09.635Z,85.50
2018-01-29T22:11:38.207Z,86.70
2018-01-29T22:14:05.827Z,85.90
2018-01-29T22:16:33.527Z,85.70
2018-01-29T22:19:01.154Z,86.90
2018-01-29T22:21:28.785Z,85.90
2018-01-29T22:23:57.254Z,85.80
2018-01-29T22:26:24.893Z,84.40
2018-01-29T22:28:52.547Z,84.10
2018-01-29T22:31:20.229Z,84.80
2018-01-29T22:33:47.855Z,84.10
2018-01-29T22:36:15.485Z,84.90
2018-01-29T22:38:43.195Z,83.20
2018-01-29T22:41:10.821Z,85.50
2018-01-29T22:43:38.714Z,86.60
2018-01-29T22:51:14.115Z,85.10
2018-01-29T22:53:41.734Z,88.30
2018-01-29T22:56:09.349Z,89.70
2018-01-29T22:58:37.136Z,89.40
2018-01-29T23:01:07.437Z,87.60
2018-01-29T23:06:15.433Z,89.10
2018-01-29T23:11:23.469Z,88.50
2018-01-29T23:13:54.655Z,87.00
2018-01-29T23:16:20.532Z,87.00
2018-01-29T23:18:48.233Z,87.00
2018-01-29T23:21:15.929Z,86.90
2018-01-29T23:23:43.503Z,87.90
2018-01-29T23:26:11.556Z,89.50
2018-01-29T23:28:40.130Z,91.00
2018-01-29T23:31:07.756Z,90.80
2018-01-29T23:33:36.736Z,91.80
2018-01-29T23:36:04.347Z,92.90
2018-01-29T23:40:59.697Z,89.40
2018-01-29T23:43:27.827Z,89.40
2018-01-29T23:45:55.424Z,88.70
2018-01-29T23:48:23.154Z,88.40
2018-01-29T23:50:50.775Z,89.80
2018-01-29T23:53:18.819Z,89.80
2018-01-29T23:55:47.101Z,89.40
